createdAt,value
2018-08-21T00:00:04.815Z,26.2
2018-08-21T00:02:44.642Z,26.2
2018-08-21T00:04:05.809Z,26.2
2018-08-21T00:06:15.198Z,26.2
2018-08-21T00:08:07.990Z,26.2
2018-08-21T00:10:07.509Z,26.2
2018-08-21T00:12:04.765Z,26.2
2018-08-21T00:14:05.432Z,26.2
2018-08-21T00:16:05.139Z,26.2
2018-08-21T00:18:15.287Z,26.1
2018-08-21T00:20:04.992Z,26.1
2018-08-21T00:22:04.776Z,26.1
2018-08-21T00:24:05.524Z,26.2
2018-08-21T00:26:05.235Z,26.2
2018-08-21T00:28:05.011Z,26.2
2018-08-21T00:30:07.261Z,26.2
2018-08-21T00:32:05.563Z,26.1
2018-08-21T00:34:05.221Z,26.1
2018-08-21T00:36:05.468Z,26.2
2018-08-21T00:38:05.175Z,26.2
2018-08-21T00:40:04.850Z,26.1
2018-08-21T00:42:10.604Z,26.1
2018-08-21T00:44:07.362Z,26.1
2018-08-21T00:46:05.122Z,26.1
2018-08-21T00:48:05.420Z,26.1
2018-08-21T00:50:07.720Z,26.1
2018-08-21T00:52:07.981Z,26.1
2018-08-21T00:54:05.248Z,26.1
2018-08-21T00:56:07.994Z,26.1
2018-08-21T00:58:04.794Z,26.1
2018-08-21T01:00:05.505Z,26.1
2018-08-21T01:02:05.191Z,26.1
2018-08-21T01:04:04.940Z,26.1
2018-08-21T01:06:07.189Z,26.2
2018-08-21T01:08:04.913Z,26.1
2018-08-21T01:10:04.705Z,26.2
2018-08-21T01:12:05.508Z,26.1
2018-08-21T01:14:05.194Z,26.2
2018-08-21T01:16:04.879Z,26.1
2018-08-21T01:18:04.754Z,26.2
2018-08-21T01:20:05.493Z,26.1
2018-08-21T01:22:05.180Z,26.2
2018-08-21T01:24:07.711Z,26.1
2018-08-21T01:26:05.470Z,26.1
2018-08-21T01:28:05.195Z,26.1
2018-08-21T01:30:10.042Z,26.1
2018-08-21T01:32:04.772Z,26.1
2018-08-21T01:34:05.513Z,26.1
2018-08-21T01:36:05.220Z,26.2
2018-08-21T01:38:04.919Z,26.2
2018-08-21T01:40:07.108Z,26.2
2018-08-21T01:42:04.993Z,26.2
2018-08-21T01:44:04.661Z,26.1
2018-08-21T01:46:07.941Z,26.1
2018-08-21T01:48:04.667Z,26.1
2018-08-21T01:50:07.883Z,26.2
2018-08-21T01:52:10.119Z,26.2
2018-08-21T01:54:07.354Z,26.2
2018-08-21T01:56:05.425Z,26.2
2018-08-21T01:58:04.662Z,26.2
2018-08-21T02:00:04.922Z,26.2
2018-08-21T02:02:05.637Z,26.1
2018-08-21T02:04:04.950Z,26.2
2018-08-21T02:06:07.704Z,26.1
2018-08-21T02:08:05.356Z,26.2
2018-08-21T02:10:05.047Z,26.1
2018-08-21T02:12:05.299Z,26.2
2018-08-21T02:14:05.041Z,26.1
2018-08-21T02:16:05.277Z,26.2
2018-08-21T02:18:07.908Z,26.1
2018-08-21T02:20:05.120Z,26.1
2018-08-21T02:22:04.990Z,26.2
2018-08-21T02:24:05.474Z,26.2
2018-08-21T02:26:05.188Z,26.1
2018-08-21T02:28:04.942Z,26.1
2018-08-21T02:30:04.710Z,26.1
2018-08-21T02:32:05.857Z,26.1
2018-08-21T02:34:08.121Z,26.1
2018-08-21T02:36:04.902Z,26.1
2018-08-21T02:38:05.577Z,26.1
2018-08-21T02:40:05.599Z,26.1
2018-08-21T02:42:05.326Z,26.1
2018-08-21T02:44:08.072Z,26.1
2018-08-21T02:46:04.790Z,26.1
2018-08-21T02:48:05.549Z,26.2
2018-08-21T02:50:07.989Z,26.1
2018-08-21T02:52:05.237Z,26.1
2018-08-21T02:54:04.943Z,26.1
2018-08-21T02:56:04.639Z,26.1
2018-08-21T02:58:07.493Z,26.1
2018-08-21T03:00:05.196Z,26.1
2018-08-21T03:02:04.867Z,26.1
2018-08-21T03:04:05.641Z,26.1
2018-08-21T03:06:04.850Z,26.1
2018-08-21T03:08:05.592Z,26.1
2018-08-21T03:10:07.804Z,26.1
2018-08-21T03:12:05.465Z,26.1
2018-08-21T03:14:05.346Z,26.1
2018-08-21T03:16:07.283Z,26.1
2018-08-21T03:18:07.283Z,26.1
2018-08-21T03:20:05.463Z,26.1
2018-08-21T03:22:07.182Z,26.1
2018-08-21T03:24:07.507Z,26.1
2018-08-21T03:26:10.331Z,26.1
2018-08-21T03:28:04.976Z,26.1
2018-08-21T03:30:05.263Z,26.1
2018-08-21T03:32:04.981Z,26.1
2018-08-21T03:34:04.720Z,26.1
2018-08-21T03:36:05.472Z,26.1
2018-08-21T03:38:05.142Z,26.1
2018-08-21T03:40:07.318Z,26.1
2018-08-21T03:42:04.995Z,26.1
2018-08-21T03:44:04.656Z,26.1
2018-08-21T03:46:07.847Z,26.1
2018-08-21T03:48:08.087Z,26.1
2018-08-21T03:50:04.766Z,26.1
2018-08-21T03:52:05.417Z,26.1
2018-08-21T03:54:09.706Z,26.1
2018-08-21T03:56:07.222Z,26.1
2018-08-21T03:58:04.876Z,26.1
2018-08-21T04:00:04.638Z,26.1
2018-08-21T04:02:05.358Z,26
2018-08-21T04:04:07.533Z,26
2018-08-21T04:06:05.266Z,26
2018-08-21T04:08:04.984Z,26.1
2018-08-21T04:10:05.163Z,26
2018-08-21T04:12:05.022Z,26
2018-08-21T04:14:04.719Z,26
2018-08-21T04:16:04.935Z,26
2018-08-21T04:18:04.890Z,26
2018-08-21T04:20:10.625Z,26
2018-08-21T04:22:05.317Z,26
2018-08-21T04:24:12.560Z,25.9
2018-08-21T04:26:05.250Z,25.9
2018-08-21T04:28:05.466Z,25.6
2018-08-21T04:30:05.207Z,25.6
2018-08-21T04:32:04.862Z,25.5
2018-08-21T04:34:07.307Z,25.6
2018-08-21T04:36:08.177Z,25.5
2018-08-21T04:38:08.560Z,25.6
2018-08-21T04:40:05.266Z,25.7
2018-08-21T04:42:05.629Z,25.8
2018-08-21T04:44:05.400Z,25.8
2018-08-21T04:46:05.077Z,25.9
2018-08-21T04:48:07.299Z,25.8
2018-08-21T04:50:07.507Z,25.9
2018-08-21T04:52:05.261Z,25.8
2018-08-21T04:54:05.068Z,25.9
2018-08-21T04:56:05.318Z,25.9
2018-08-21T04:58:07.776Z,26
2018-08-21T05:00:05.458Z,26
2018-08-21T05:02:05.158Z,25.9
2018-08-21T05:04:14.942Z,25.8
2018-08-21T05:06:04.825Z,25.8
2018-08-21T05:08:08.213Z,25.7
2018-08-21T05:10:05.496Z,25.7
2018-08-21T05:12:05.167Z,25.8
2018-08-21T05:14:08.000Z,25.8
2018-08-21T05:16:04.731Z,25.8
2018-08-21T05:18:04.807Z,25.9
2018-08-21T05:20:04.825Z,25.9
2018-08-21T05:22:05.515Z,25.9
2018-08-21T05:24:07.812Z,25.9
2018-08-21T05:26:04.631Z,25.9
2018-08-21T05:28:05.302Z,25.9
2018-08-21T05:30:04.989Z,26
2018-08-21T05:32:07.210Z,26
2018-08-21T05:34:08.430Z,26
2018-08-21T05:36:05.191Z,26
2018-08-21T05:38:04.905Z,26
2018-08-21T05:40:07.144Z,25.9
2018-08-21T05:42:09.895Z,25.9
2018-08-21T05:44:05.615Z,25.9
2018-08-21T05:46:05.409Z,25.9
2018-08-21T05:48:04.757Z,25.8
2018-08-21T05:50:05.402Z,25.9
2018-08-21T05:52:07.602Z,25.9
2018-08-21T05:54:10.376Z,26
2018-08-21T05:56:07.617Z,26
2018-08-21T05:58:04.849Z,26
2018-08-21T06:00:05.661Z,25.9
2018-08-21T06:02:05.296Z,25.9
2018-08-21T06:04:04.992Z,25.9
2018-08-21T06:06:04.774Z,25.9
2018-08-21T06:08:05.472Z,25.9
2018-08-21T06:10:05.432Z,26
2018-08-21T06:12:05.173Z,26
2018-08-21T06:14:05.518Z,26
2018-08-21T06:16:08.041Z,26
2018-08-21T06:18:04.921Z,26
2018-08-21T06:20:04.808Z,25.9
2018-08-21T06:22:08.027Z,25.9
2018-08-21T06:24:14.927Z,25.9
2018-08-21T06:26:07.167Z,25.9
2018-08-21T06:28:05.367Z,26
2018-08-21T06:30:07.669Z,26
2018-08-21T06:32:07.962Z,26
2018-08-21T06:34:04.852Z,26
2018-08-21T06:36:05.596Z,26
2018-08-21T06:38:05.548Z,26
2018-08-21T06:40:05.055Z,26
2018-08-21T06:42:05.302Z,26
2018-08-21T06:44:05.283Z,26
2018-08-21T06:46:04.984Z,26
2018-08-21T06:48:05.241Z,26
2018-08-21T06:50:04.890Z,26
2018-08-21T06:52:05.573Z,26
2018-08-21T06:54:07.777Z,26
2018-08-21T06:56:05.456Z,26
2018-08-21T06:58:05.160Z,26
2018-08-21T07:00:04.876Z,26
2018-08-21T07:02:04.796Z,26
2018-08-21T07:04:05.512Z,26
2018-08-21T07:06:07.727Z,26
2018-08-21T07:08:05.461Z,26
2018-08-21T07:10:05.277Z,26
2018-08-21T07:12:07.720Z,26.1
2018-08-21T07:14:05.408Z,26.1
2018-08-21T07:16:05.465Z,26.1
2018-08-21T07:18:05.575Z,26.1
2018-08-21T07:20:07.891Z,26.1
2018-08-21T07:22:05.583Z,26.1
2018-08-21T07:24:05.546Z,26.1
2018-08-21T07:26:07.407Z,26.1
2018-08-21T07:28:05.127Z,26.1
2018-08-21T07:30:04.858Z,26.2
2018-08-21T07:32:05.514Z,26.2
2018-08-21T07:34:05.249Z,26.2
2018-08-21T07:36:04.916Z,26.1
2018-08-21T07:38:05.621Z,26.1
2018-08-21T07:40:05.350Z,26.2
2018-08-21T07:42:05.026Z,26.2
2018-08-21T07:44:04.856Z,26.2
2018-08-21T07:46:05.525Z,26.1
2018-08-21T07:48:07.328Z,26.1
2018-08-21T07:50:05.000Z,26.1
2018-08-21T07:52:05.221Z,26.2
2018-08-21T07:54:04.950Z,26.2
2018-08-21T07:56:04.655Z,26.2
2018-08-21T07:58:05.364Z,26.2
2018-08-21T08:00:06.168Z,26.2
2018-08-21T08:02:08.000Z,26.2
2018-08-21T08:04:07.318Z,26.2
2018-08-21T08:06:05.620Z,26.2
2018-08-21T08:08:05.256Z,26.2
2018-08-21T08:10:09.984Z,26.2
2018-08-21T08:12:04.700Z,26.2
2018-08-21T08:14:05.468Z,26.2
2018-08-21T08:16:04.604Z,26.3
2018-08-21T08:18:05.479Z,26.3
2018-08-21T08:20:05.229Z,26.2
2018-08-21T08:22:05.095Z,26.2
2018-08-21T08:24:07.363Z,26.3
2018-08-21T08:26:04.627Z,26.3
2018-08-21T08:28:05.313Z,26.2
2018-08-21T08:30:05.553Z,26.2
2018-08-21T08:32:05.273Z,26.2
2018-08-21T08:34:05.153Z,26.2
2018-08-21T08:36:04.841Z,26.3
2018-08-21T08:38:08.065Z,26.3
2018-08-21T08:40:07.334Z,26.3
2018-08-21T08:42:10.108Z,26.3
2018-08-21T08:44:04.822Z,26.3
2018-08-21T08:46:05.531Z,26.3
2018-08-21T08:48:04.713Z,26.3
2018-08-21T08:50:04.904Z,26.3
2018-08-21T08:52:04.646Z,26.3
2018-08-21T08:54:05.382Z,26.3
2018-08-21T08:56:05.095Z,25.9
2018-08-21T08:58:05.299Z,25.9
2018-08-21T09:00:04.993Z,25.6
2018-08-21T09:02:04.673Z,25.5
2018-08-21T09:04:05.445Z,25.6
2018-08-21T09:06:07.678Z,25.7
2018-08-21T09:08:05.330Z,25.7
2018-08-21T09:10:10.109Z,25.9
2018-08-21T09:12:09.876Z,25.9
2018-08-21T09:14:08.113Z,26
2018-08-21T09:16:04.789Z,26
2018-08-21T09:18:04.809Z,26.2
2018-08-21T09:20:08.130Z,26.3
2018-08-21T09:22:07.356Z,26.3
2018-08-21T09:24:07.651Z,26.3
2018-08-21T09:26:07.861Z,26.1
2018-08-21T09:28:05.526Z,26.1
2018-08-21T09:30:05.180Z,26.2
2018-08-21T09:32:04.891Z,26.3
2018-08-21T09:34:05.650Z,26.4
2018-08-21T09:36:04.958Z,26.5
2018-08-21T09:38:04.688Z,26.4
2018-08-21T09:40:05.678Z,26.5
2018-08-21T09:42:07.954Z,26.6
2018-08-21T09:44:04.655Z,26.5
2018-08-21T09:46:05.339Z,26.6
2018-08-21T09:48:05.116Z,26.6
2018-08-21T09:50:09.914Z,26.6
2018-08-21T09:52:04.697Z,26.6
2018-08-21T09:54:05.454Z,26.4
2018-08-21T09:56:05.126Z,26.5
2018-08-21T09:58:05.319Z,26.6
2018-08-21T10:00:05.589Z,26.6
2018-08-21T10:02:05.430Z,26.6
2018-08-21T10:04:05.121Z,26.6
2018-08-21T10:06:07.955Z,26.6
2018-08-21T10:08:04.636Z,26.6
2018-08-21T10:10:05.315Z,26.5
2018-08-21T10:12:04.982Z,26.5
2018-08-21T10:14:04.616Z,26.5
2018-08-21T10:16:05.323Z,26.4
2018-08-21T10:18:05.257Z,26.4
2018-08-21T10:20:07.561Z,26.5
2018-08-21T10:22:05.244Z,26.5
2018-08-21T10:24:05.525Z,26.6
2018-08-21T10:26:10.310Z,26.6
2018-08-21T10:28:05.129Z,26.6
2018-08-21T10:30:04.970Z,26.6
2018-08-21T10:32:04.685Z,26.7
2018-08-21T10:34:04.909Z,26.7
2018-08-21T10:36:05.605Z,26.7
2018-08-21T10:38:05.393Z,26.6
2018-08-21T10:40:05.100Z,26.7
2018-08-21T10:42:04.837Z,26.7
2018-08-21T10:44:08.113Z,26.5
2018-08-21T10:46:09.924Z,26.5
2018-08-21T10:48:05.273Z,26.5
2018-08-21T10:50:05.545Z,26.6
2018-08-21T10:52:05.224Z,26.6
2018-08-21T10:54:04.939Z,26.6
2018-08-21T10:56:05.163Z,26.6
2018-08-21T10:58:04.949Z,26.3
2018-08-21T11:00:04.621Z,26.3
2018-08-21T11:02:05.376Z,26.5
2018-08-21T11:04:05.252Z,26.2
2018-08-21T11:06:05.569Z,26.4
2018-08-21T11:08:05.220Z,26.5
2018-08-21T11:10:10.051Z,26.6
2018-08-21T11:12:04.777Z,26.6
2018-08-21T11:14:05.455Z,26.7
2018-08-21T11:16:12.791Z,26.7
2018-08-21T11:18:07.260Z,26.6
2018-08-21T11:20:05.372Z,26.6
2018-08-21T11:22:05.077Z,26.5
2018-08-21T11:24:07.337Z,26.6
2018-08-21T11:26:05.335Z,26.6
2018-08-21T11:28:05.163Z,26.5
2018-08-21T11:30:05.408Z,26.4
2018-08-21T11:32:05.046Z,26.4
2018-08-21T11:34:04.738Z,26.5
2018-08-21T11:36:05.474Z,26.5
2018-08-21T11:38:04.877Z,26.6
2018-08-21T11:40:07.683Z,26.4
2018-08-21T11:42:05.407Z,26.5
2018-08-21T11:44:04.636Z,26
2018-08-21T11:46:04.906Z,25.8
2018-08-21T11:48:05.722Z,26
2018-08-21T11:50:08.057Z,26
2018-08-21T11:52:05.373Z,26
2018-08-21T11:54:05.093Z,25.9
2018-08-21T11:56:04.811Z,26.1
2018-08-21T11:58:05.489Z,26.2
2018-08-21T12:00:05.194Z,26.4
2018-08-21T12:02:04.947Z,26.4
2018-08-21T12:04:05.190Z,26
2018-08-21T12:06:04.929Z,25.9
2018-08-21T12:08:07.147Z,26.3
2018-08-21T12:10:07.389Z,26.4
2018-08-21T12:12:05.210Z,26.4
2018-08-21T12:14:04.895Z,26.4
2018-08-21T12:16:04.656Z,26.2
2018-08-21T12:18:05.563Z,26.4
2018-08-21T12:20:05.252Z,26.3
2018-08-21T12:22:05.368Z,26.4
2018-08-21T12:24:04.702Z,26.2
2018-08-21T12:26:07.425Z,26.2
2018-08-21T12:28:10.169Z,26.3
2018-08-21T12:30:05.111Z,26.4
2018-08-21T12:32:04.734Z,26.4
2018-08-21T12:34:05.528Z,26.5
2018-08-21T12:36:08.138Z,26.6
2018-08-21T12:38:05.355Z,26.6
2018-08-21T12:40:07.710Z,26.5
2018-08-21T12:42:05.400Z,26.5
2018-08-21T12:44:05.114Z,26.2
2018-08-21T12:46:04.784Z,26.3
2018-08-21T12:48:05.460Z,26.2
2018-08-21T12:50:05.191Z,25.9
2018-08-21T12:52:04.857Z,25.9
2018-08-21T12:54:08.126Z,25.9
2018-08-21T12:56:04.871Z,25.9
2018-08-21T12:58:04.751Z,26
2018-08-21T13:00:05.562Z,26.1
2018-08-21T13:02:05.307Z,26.3
2018-08-21T13:04:05.163Z,26.1
2018-08-21T13:06:04.797Z,26.2
2018-08-21T13:08:05.517Z,26.3
2018-08-21T13:10:05.220Z,26.4
2018-08-21T13:12:04.973Z,26.3
2018-08-21T13:14:07.234Z,26.6
2018-08-21T13:16:05.471Z,26.6
2018-08-21T13:18:05.409Z,26.6
2018-08-21T13:20:05.090Z,26.6
2018-08-21T13:22:04.873Z,26.6
2018-08-21T13:24:05.521Z,26.7
2018-08-21T13:26:07.690Z,26.8
2018-08-21T13:28:05.335Z,26.8
2018-08-21T13:30:05.065Z,26.8
2018-08-21T13:32:09.946Z,26.4
2018-08-21T13:34:04.786Z,26.4
2018-08-21T13:36:05.545Z,26.3
2018-08-21T13:38:05.705Z,26.4
2018-08-21T13:40:05.572Z,26.5
2018-08-21T13:42:10.448Z,26.6
2018-08-21T13:44:04.654Z,26.6
2018-08-21T13:46:05.308Z,26.6
2018-08-21T13:48:10.050Z,26.4
2018-08-21T13:50:05.355Z,26.4
2018-08-21T13:52:05.177Z,26.3
2018-08-21T13:54:07.466Z,26.6
2018-08-21T13:56:05.145Z,26.6
2018-08-21T13:58:04.857Z,26.6
2018-08-21T14:00:05.098Z,26.7
2018-08-21T14:02:04.847Z,26.8
2018-08-21T14:04:09.889Z,26.8
2018-08-21T14:06:05.546Z,26.8
2018-08-21T14:08:05.228Z,26.9
2018-08-21T14:10:05.108Z,26.7
2018-08-21T14:12:04.950Z,26.4
2018-08-21T14:14:04.732Z,26.1
2018-08-21T14:16:04.676Z,26.2
2018-08-21T14:18:05.159Z,26.2
2018-08-21T14:20:04.886Z,26.2
2018-08-21T14:22:05.568Z,26.3
2018-08-21T14:24:05.213Z,26.5
2018-08-21T14:26:04.890Z,26.6
2018-08-21T14:28:05.587Z,26.7
2018-08-21T14:30:05.492Z,26.8
2018-08-21T14:32:05.233Z,26.9
2018-08-21T14:34:05.124Z,26.9
2018-08-21T14:36:05.239Z,26.9
2018-08-21T14:38:04.995Z,27
2018-08-21T14:40:05.219Z,27
2018-08-21T14:42:07.500Z,26.9
2018-08-21T14:44:10.281Z,26.7
2018-08-21T14:46:05.028Z,26.7
2018-08-21T14:48:07.915Z,26.2
2018-08-21T14:50:04.737Z,26.2
2018-08-21T14:52:04.675Z,26.3
2018-08-21T14:54:07.948Z,26
2018-08-21T14:56:04.667Z,26.1
2018-08-21T14:58:05.575Z,26.1
2018-08-21T15:00:05.463Z,26.3
2018-08-21T15:02:05.160Z,26.5
2018-08-21T15:04:04.822Z,26.6
2018-08-21T15:06:05.727Z,26.7
2018-08-21T15:08:05.495Z,26.6
2018-08-21T15:10:05.276Z,26.5
2018-08-21T15:12:05.116Z,26.4
2018-08-21T15:14:04.841Z,26.5
2018-08-21T15:16:05.554Z,26.7
2018-08-21T15:18:05.449Z,26.5
2018-08-21T15:20:05.120Z,26.5
2018-08-21T15:22:10.441Z,26.7
2018-08-21T15:24:08.049Z,26.8
2018-08-21T15:26:04.784Z,26.8
2018-08-21T15:28:04.992Z,26.9
2018-08-21T15:30:05.203Z,27
2018-08-21T15:32:07.452Z,26.9
2018-08-21T15:34:05.168Z,26.9
2018-08-21T15:36:04.968Z,27
2018-08-21T15:38:09.746Z,26.9
2018-08-21T15:40:05.658Z,26.8
2018-08-21T15:42:04.677Z,26.6
2018-08-21T15:44:05.386Z,26.7
2018-08-21T15:46:05.148Z,26.6
2018-08-21T15:48:04.862Z,26.5
2018-08-21T15:50:05.592Z,26.3
2018-08-21T15:52:04.710Z,26.5
2018-08-21T15:54:07.976Z,26.8
2018-08-21T15:56:04.857Z,26.7
2018-08-21T15:58:04.995Z,26.9
2018-08-21T16:00:05.286Z,26.9
2018-08-21T16:02:08.285Z,27
2018-08-21T16:04:07.554Z,27
2018-08-21T16:06:05.489Z,27.1
2018-08-21T16:08:05.222Z,27.1
2018-08-21T16:10:04.923Z,27
2018-08-21T16:12:05.675Z,26.9
2018-08-21T16:14:05.185Z,27
2018-08-21T16:16:04.914Z,27
2018-08-21T16:18:04.809Z,26.8
2018-08-21T16:20:04.877Z,26.7
2018-08-21T16:22:05.177Z,26.9
2018-08-21T16:24:05.108Z,26.9
2018-08-21T16:26:04.861Z,26.9
2018-08-21T16:28:05.568Z,26.8
2018-08-21T16:30:05.380Z,26.6
2018-08-21T16:32:05.150Z,26.8
2018-08-21T16:34:08.145Z,26.7
2018-08-21T16:36:10.347Z,26.8
2018-08-21T16:38:04.714Z,26.8
2018-08-21T16:40:05.464Z,27
2018-08-21T16:42:05.322Z,27.1
2018-08-21T16:44:05.176Z,27
2018-08-21T16:46:04.844Z,27.1
2018-08-21T16:48:12.858Z,27
2018-08-21T16:50:05.091Z,27
2018-08-21T16:52:04.778Z,26.9
2018-08-21T16:54:05.009Z,27
2018-08-21T16:56:05.090Z,27.1
2018-08-21T16:58:04.822Z,27.1
2018-08-21T17:00:08.102Z,27.2
2018-08-21T17:02:10.554Z,27.2
2018-08-21T17:04:04.827Z,27.2
2018-08-21T17:06:05.435Z,27.2
2018-08-21T17:08:07.679Z,27.2
2018-08-21T17:10:04.609Z,27.2
2018-08-21T17:12:05.629Z,27.1
2018-08-21T17:14:05.546Z,27.1
2018-08-21T17:16:04.798Z,27.1
2018-08-21T17:18:07.229Z,27.1
2018-08-21T17:20:10.013Z,26.8
2018-08-21T17:22:04.890Z,26.8
2018-08-21T17:24:05.584Z,26.7
2018-08-21T17:26:04.866Z,26.7
2018-08-21T17:28:05.108Z,26.7
2018-08-21T17:30:04.924Z,26.9
2018-08-21T17:32:04.657Z,27
2018-08-21T17:34:05.392Z,27
2018-08-21T17:36:07.664Z,27.1
2018-08-21T17:38:05.416Z,27.1
2018-08-21T17:40:07.832Z,27.2
2018-08-21T17:42:05.596Z,27.2
2018-08-21T17:44:04.852Z,27.1
2018-08-21T17:46:05.589Z,27.2
2018-08-21T17:48:04.967Z,27.2
2018-08-21T17:50:05.412Z,27.2
2018-08-21T17:52:05.062Z,27.2
2018-08-21T17:54:04.891Z,27.2
2018-08-21T17:56:05.661Z,27.3
2018-08-21T17:58:05.416Z,27.3
2018-08-21T18:00:05.115Z,27.2
2018-08-21T18:02:04.906Z,27.2
2018-08-21T18:04:08.118Z,27.1
2018-08-21T18:06:15.154Z,27.1
2018-08-21T18:08:04.851Z,27.1
2018-08-21T18:10:09.859Z,27.2
2018-08-21T18:12:05.555Z,27.2
2018-08-21T18:14:04.781Z,27.2
2018-08-21T18:16:07.587Z,27.2
2018-08-21T18:18:05.497Z,27.2
2018-08-21T18:20:05.186Z,27.2
2018-08-21T18:22:05.499Z,27.3
2018-08-21T18:24:05.455Z,27.2
2018-08-21T18:26:05.210Z,27.2
2018-08-21T18:28:07.962Z,27.2
2018-08-21T18:30:04.651Z,27.2
2018-08-21T18:32:05.410Z,27.2
2018-08-21T18:34:05.110Z,27.2
2018-08-21T18:36:04.778Z,27.2
2018-08-21T18:38:05.482Z,27.2
2018-08-21T18:40:05.193Z,27.2
2018-08-21T18:42:10.459Z,27.2
2018-08-21T18:44:04.894Z,27.2
2018-08-21T18:46:08.109Z,27.1
2018-08-21T18:48:07.321Z,27.2
2018-08-21T18:50:12.649Z,27.1
2018-08-21T18:52:08.108Z,27.2
2018-08-21T18:54:04.788Z,27.1
2018-08-21T18:56:04.739Z,27.1
2018-08-21T18:58:05.575Z,27.1
2018-08-21T19:00:08.052Z,27.2
2018-08-21T19:02:04.759Z,27.2
2018-08-21T19:04:05.551Z,27.3
2018-08-21T19:06:05.606Z,27.3
2018-08-21T19:08:07.827Z,27.3
2018-08-21T19:10:05.521Z,27.3
2018-08-21T19:12:04.767Z,27.3
2018-08-21T19:14:08.090Z,27.3
2018-08-21T19:16:05.078Z,27.2
2018-08-21T19:18:10.139Z,27.3
2018-08-21T19:20:04.868Z,27.3
2018-08-21T19:22:05.582Z,27.3
2018-08-21T19:24:07.808Z,27.4
2018-08-21T19:26:05.461Z,27.3
2018-08-21T19:28:05.126Z,27.3
2018-08-21T19:30:07.338Z,27.3
2018-08-21T19:32:04.976Z,27.3
2018-08-21T19:34:07.183Z,27.3
2018-08-21T19:36:10.034Z,27.3
2018-08-21T19:38:09.863Z,27.3
2018-08-21T19:40:05.107Z,27.3
2018-08-21T19:42:04.831Z,27.3
2018-08-21T19:44:05.480Z,27.3
2018-08-21T19:46:05.221Z,27.3
2018-08-21T19:48:07.454Z,27.3
2018-08-21T19:50:07.852Z,27.3
2018-08-21T19:52:13.145Z,27.2
2018-08-21T19:54:04.954Z,27.2
2018-08-21T19:56:04.794Z,27.2
2018-08-21T19:58:05.576Z,27.3
2018-08-21T20:00:07.830Z,27.2
2018-08-21T20:02:07.637Z,27.2
2018-08-21T20:04:07.935Z,27.2
2018-08-21T20:06:05.630Z,27.2
2018-08-21T20:08:05.406Z,27.2
2018-08-21T20:10:05.617Z,27.2
2018-08-21T20:12:10.391Z,27.2
2018-08-21T20:14:07.615Z,27.2
2018-08-21T20:16:04.734Z,27.1
2018-08-21T20:18:04.703Z,27.2
2018-08-21T20:20:05.415Z,27.2
2018-08-21T20:22:07.648Z,27.1
2018-08-21T20:24:04.933Z,27.1
2018-08-21T20:26:04.645Z,27.1
2018-08-21T20:28:05.338Z,27.1
2018-08-21T20:30:07.549Z,27
2018-08-21T20:32:05.266Z,27
2018-08-21T20:34:04.976Z,27
2018-08-21T20:36:04.697Z,27
2018-08-21T20:38:07.946Z,27
2018-08-21T20:40:09.770Z,27
2018-08-21T20:42:10.748Z,27
2018-08-21T20:44:07.260Z,27
2018-08-21T20:46:05.039Z,26.9
2018-08-21T20:48:04.784Z,26.9
2018-08-21T20:50:05.472Z,26.9
2018-08-21T20:52:04.679Z,26.9
2018-08-21T20:54:05.346Z,26.9
2018-08-21T20:56:05.537Z,26.9
2018-08-21T20:58:05.277Z,26.8
2018-08-21T21:00:04.980Z,26.8
2018-08-21T21:02:04.735Z,26.9
2018-08-21T21:04:04.966Z,26.9
2018-08-21T21:06:04.785Z,26.9
2018-08-21T21:08:08.001Z,26.9
2018-08-21T21:10:04.672Z,26.9
2018-08-21T21:12:05.373Z,26.9
2018-08-21T21:14:05.178Z,26.9
2018-08-21T21:16:04.961Z,26.9
2018-08-21T21:18:04.940Z,26.9
2018-08-21T21:20:08.124Z,26.9
2018-08-21T21:22:04.973Z,26.9
2018-08-21T21:24:05.889Z,26.9
2018-08-21T21:26:04.662Z,26.9
2018-08-21T21:28:05.323Z,26.9
2018-08-21T21:30:04.722Z,26.9
2018-08-21T21:32:05.396Z,26.9
2018-08-21T21:34:07.650Z,26.9
2018-08-21T21:36:05.336Z,26.9
2018-08-21T21:38:07.517Z,26.9
2018-08-21T21:40:05.202Z,26.9
2018-08-21T21:42:04.980Z,26.9
2018-08-21T21:44:07.364Z,26.8
2018-08-21T21:46:05.042Z,26.8
2018-08-21T21:48:04.911Z,26.8
2018-08-21T21:50:08.122Z,26.8
2018-08-21T21:52:04.851Z,26.8
2018-08-21T21:54:08.106Z,26.8
2018-08-21T21:56:05.298Z,26.8
2018-08-21T21:58:07.553Z,26.7
2018-08-21T22:00:05.249Z,26.7
2018-08-21T22:02:05.037Z,26.7
2018-08-21T22:04:05.063Z,26.8
2018-08-21T22:06:05.307Z,26.8
2018-08-21T22:08:10.037Z,26.7
2018-08-21T22:10:04.713Z,26.8
2018-08-21T22:12:05.461Z,26.8
2018-08-21T22:14:05.165Z,26.8
2018-08-21T22:16:04.899Z,26.7
2018-08-21T22:18:04.725Z,26.7
2018-08-21T22:20:10.521Z,26.7
2018-08-21T22:22:04.871Z,26.7
2018-08-21T22:24:05.089Z,26.7
2018-08-21T22:26:04.780Z,26.7
2018-08-21T22:28:05.584Z,26.7
2018-08-21T22:30:07.356Z,26.7
2018-08-21T22:32:04.645Z,26.7
2018-08-21T22:34:05.341Z,26.7
2018-08-21T22:36:07.593Z,26.7
2018-08-21T22:38:07.839Z,26.6
2018-08-21T22:40:10.662Z,26.6
2018-08-21T22:42:07.418Z,26.6
2018-08-21T22:44:09.696Z,26.6
2018-08-21T22:46:07.909Z,26.6
2018-08-21T22:48:08.135Z,26.6
2018-08-21T22:50:05.344Z,26.6
2018-08-21T22:52:07.792Z,26.4
2018-08-21T22:54:04.891Z,26.3
2018-08-21T22:56:05.611Z,26.4
2018-08-21T22:58:04.919Z,26.5
2018-08-21T23:00:05.721Z,26.5
2018-08-21T23:02:05.405Z,26.5
2018-08-21T23:04:07.629Z,26.5
2018-08-21T23:06:05.318Z,26.5
2018-08-21T23:08:05.127Z,26.5
2018-08-21T23:10:12.414Z,26.5
2018-08-21T23:12:05.154Z,26.5
2018-08-21T23:14:04.894Z,26.5
2018-08-21T23:16:09.709Z,26.5
2018-08-21T23:18:05.606Z,26.5
2018-08-21T23:20:04.872Z,26.5
2018-08-21T23:22:05.596Z,26.4
2018-08-21T23:24:05.383Z,26.4
2018-08-21T23:26:05.152Z,26.5
2018-08-21T23:28:04.836Z,26.4
2018-08-21T23:30:08.128Z,26.4
2018-08-21T23:32:14.908Z,26.4
2018-08-21T23:34:08.189Z,26.4
2018-08-21T23:36:05.208Z,26.4
2018-08-21T23:38:04.924Z,26.4
2018-08-21T23:40:05.639Z,26.4
2018-08-21T23:42:04.604Z,26.5
2018-08-21T23:44:09.956Z,26.4
2018-08-21T23:46:04.747Z,26.4
2018-08-21T23:48:05.452Z,26.4
2018-08-21T23:50:07.762Z,26.4
2018-08-21T23:52:13.052Z,26.3
2018-08-21T23:54:07.356Z,26.2
2018-08-21T23:56:15.141Z,26.3
2018-08-21T23:58:04.829Z,26.3
